Time;durP1;ratioP1;P1;durP2;ratioP2;P2;SDS_P1;SDS_P2;PMS_P1;PMS_P2;Temp;Humidity;BMP_temperature;BMP_pressure;BME280_temperature;BME280_humidity;BME280_pressure;Samples;Min_cycle;Max_cycle;Signal;HPM_P1;HPM_P2
2023/11/06 00:02:20;;;;;;;8.57;1.47;;;;;;;;;;5073817;28;20392;-87
2023/11/06 00:04:46;;;;;;;4.73;0.83;;;;;;;;;;5055971;28;20260;-87
2023/11/06 00:07:11;;;;;;;10.57;1.50;;;;;;;;;;5073554;28;20268;-88
2023/11/06 00:09:36;;;;;;;9.93;1.80;;;;;;;;;;5073347;28;20253;-87
2023/11/06 00:12:02;;;;;;;7.67;1.23;;;;;;;;;;5056008;28;20704;-87
2023/11/06 00:14:28;;;;;;;9.63;1.10;;;;;;;;;;5055832;28;20250;-87
2023/11/06 00:16:53;;;;;;;7.97;1.37;;;;;;;;;;5073249;28;20361;-87
2023/11/06 00:19:19;;;;;;;7.93;1.07;;;;;;;;;;5073205;28;20260;-87
2023/11/06 00:21:44;;;;;;;7.93;1.23;;;;;;;;;;5055551;28;20039;-87
2023/11/06 00:24:09;;;;;;;6.83;1.50;;;;;;;;;;5055312;28;20036;-87
2023/11/06 00:26:35;;;;;;;9.33;1.47;;;;;;;;;;5055073;28;20306;-88
2023/11/06 00:29:00;;;;;;;10.97;1.40;;;;;;;;;;5073265;28;20306;-88
2023/11/06 00:31:26;;;;;;;5.85;1.30;;;;;;;;;;5055390;28;20288;-88
2023/11/06 00:33:53;;;;;;;10.93;1.55;;;;;;;;;;5073414;28;20025;-88
2023/11/06 00:36:22;;;;;;;4.00;1.08;;;;;;;;;;5073286;28;20590;-87
2023/11/06 00:38:48;;;;;;;17.02;1.67;;;;;;;;;;5065378;28;20555;-87
2023/11/06 00:41:13;;;;;;;6.47;1.30;;;;;;;;;;5055606;28;20047;-87
2023/11/06 00:43:39;;;;;;;17.10;1.95;;;;;;;;;;5055576;28;20241;-87
2023/11/06 00:46:04;;;;;;;12.67;1.37;;;;;;;;;;5055364;28;20044;-88
2023/11/06 00:48:29;;;;;;;8.53;1.07;;;;;;;;;;5055402;28;20300;-87
2023/11/06 00:50:54;;;;;;;2.87;0.97;;;;;;;;;;5055212;28;20315;-85
2023/11/06 00:53:19;;;;;;;8.25;1.23;;;;;;;;;;5054835;28;20261;-87
2023/11/06 00:55:45;;;;;;;12.43;1.90;;;;;;;;;;5054719;28;20035;-86
2023/11/06 00:58:10;;;;;;;7.47;1.43;;;;;;;;;;5055098;28;20024;-87
2023/11/06 01:00:35;;;;;;;2.83;0.83;;;;;;;;;;5054984;28;20245;-86
2023/11/06 01:03:00;;;;;;;9.50;1.53;;;;;;;;;;5073284;28;20453;-85
2023/11/06 01:05:25;;;;;;;14.37;1.40;;;;;;;;;;5072924;28;20051;-86
2023/11/06 01:07:51;;;;;;;10.73;1.52;;;;;;;;;;5072661;28;20287;-86
2023/11/06 01:10:18;;;;;;;5.37;1.40;;;;;;;;;;5054373;28;20024;-85
2023/11/06 01:12:44;;;;;;;5.60;1.27;;;;;;;;;;5055168;28;20062;-86
2023/11/06 01:15:09;;;;;;;20.85;1.85;;;;;;;;;;5055422;28;20094;-86
2023/11/06 01:17:35;;;;;;;11.48;1.55;;;;;;;;;;5055025;28;20017;-87
2023/11/06 01:20:00;;;;;;;12.35;1.30;;;;;;;;;;5054736;28;20366;-86
2023/11/06 01:22:26;;;;;;;7.33;1.60;;;;;;;;;;5055113;28;20071;-86
2023/11/06 01:24:52;;;;;;;6.53;1.40;;;;;;;;;;5055622;28;20118;-86
2023/11/06 01:27:18;;;;;;;5.47;1.10;;;;;;;;;;5058424;28;20273;-85
2023/11/06 01:29:44;;;;;;;15.70;1.55;;;;;;;;;;5076309;28;20048;-85
2023/11/06 01:32:09;;;;;;;8.73;1.17;;;;;;;;;;5058411;28;20052;-86
2023/11/06 01:34:35;;;;;;;7.83;1.13;;;;;;;;;;5058343;28;20288;-86
2023/11/06 01:37:00;;;;;;;7.47;1.40;;;;;;;;;;5058095;28;20539;-86
2023/11/06 01:39:26;;;;;;;11.43;1.53;;;;;;;;;;5058494;28;20106;-86
2023/11/06 01:41:51;;;;;;;7.03;1.37;;;;;;;;;;5076264;28;20625;-85
2023/11/06 01:44:16;;;;;;;6.63;1.57;;;;;;;;;;5058949;28;20017;-84
2023/11/06 01:46:42;;;;;;;4.57;0.93;;;;;;;;;;5058740;28;20070;-86
2023/11/06 01:49:08;;;;;;;7.30;1.67;;;;;;;;;;5058335;28;20382;-86
2023/11/06 01:51:35;;;;;;;6.40;1.30;;;;;;;;;;5058559;28;20107;-87
2023/11/06 01:54:01;;;;;;;7.97;1.33;;;;;;;;;;5058406;28;20507;-86
2023/11/06 01:56:27;;;;;;;10.75;1.40;;;;;;;;;;5058078;28;20020;-86
2023/11/06 01:58:53;;;;;;;4.30;1.00;;;;;;;;;;5076218;28;20484;-85
2023/11/06 02:01:19;;;;;;;7.68;1.20;;;;;;;;;;5076062;28;20035;-86
2023/11/06 02:03:44;;;;;;;11.30;1.45;;;;;;;;;;5075667;28;20042;-85
2023/11/06 02:06:10;;;;;;;4.20;1.27;;;;;;;;;;5075474;28;20025;-85
2023/11/06 02:08:35;;;;;;;10.85;1.38;;;;;;;;;;5075312;28;20023;-85
2023/11/06 02:11:01;;;;;;;9.07;0.90;;;;;;;;;;5057622;28;20024;-86
2023/11/06 02:13:27;;;;;;;3.47;1.00;;;;;;;;;;5076086;28;20253;-85
2023/11/06 02:15:53;;;;;;;7.40;1.50;;;;;;;;;;5057619;28;20025;-84
2023/11/06 02:18:18;;;;;;;3.28;0.63;;;;;;;;;;5057127;28;20388;-85
2023/11/06 02:20:43;;;;;;;2.47;0.60;;;;;;;;;;5074957;28;20020;-85
2023/11/06 02:23:09;;;;;;;3.85;0.80;;;;;;;;;;5075173;28;20245;-85
2023/11/06 02:25:34;;;;;;;4.53;0.60;;;;;;;;;;5057133;28;20040;-85
2023/11/06 02:27:59;;;;;;;2.72;0.45;;;;;;;;;;5057328;28;20265;-84
2023/11/06 02:30:24;;;;;;;2.80;0.63;;;;;;;;;;5074823;28;20370;-85
2023/11/06 02:32:50;;;;;;;3.88;0.60;;;;;;;;;;5056839;28;20033;-85
2023/11/06 02:35:15;;;;;;;7.90;0.83;;;;;;;;;;5056281;28;20036;-85
2023/11/06 02:37:40;;;;;;;4.43;0.80;;;;;;;;;;5074746;28;20272;-84
2023/11/06 02:40:06;;;;;;;6.50;1.40;;;;;;;;;;5074621;28;20256;-85
2023/11/06 02:42:33;;;;;;;11.50;1.15;;;;;;;;;;5074481;28;20027;-85
2023/11/06 02:44:58;;;;;;;11.05;1.35;;;;;;;;;;5075155;28;20069;-85
2023/11/06 02:47:24;;;;;;;7.57;1.40;;;;;;;;;;5074730;28;20064;-85
2023/11/06 02:49:49;;;;;;;3.63;1.23;;;;;;;;;;5056552;28;20415;-84
2023/11/06 02:52:14;;;;;;;8.75;1.52;;;;;;;;;;5056887;28;20031;-85
2023/11/06 02:54:40;;;;;;;10.43;1.97;;;;;;;;;;5074712;28;20027;-85
2023/11/06 02:57:06;;;;;;;7.93;1.23;;;;;;;;;;5056725;28;20277;-85
2023/11/06 02:59:32;;;;;;;11.63;1.45;;;;;;;;;;5056530;28;20100;-85
2023/11/06 03:01:58;;;;;;;10.40;1.50;;;;;;;;;;5056637;28;20021;-85
2023/11/06 03:04:24;;;;;;;14.23;1.67;;;;;;;;;;5056941;28;20099;-85
2023/11/06 03:06:49;;;;;;;8.25;1.50;;;;;;;;;;5056163;28;20339;-85
2023/11/06 03:09:15;;;;;;;12.77;2.33;;;;;;;;;;5073743;28;20383;-85
2023/11/06 03:11:40;;;;;;;12.02;1.67;;;;;;;;;;5055158;28;20017;-85
2023/11/06 03:14:06;;;;;;;13.75;1.35;;;;;;;;;;5056677;28;20385;-84
2023/11/06 03:16:35;;;;;;;6.85;0.98;;;;;;;;;;5074485;28;20492;-85
2023/11/06 03:19:00;;;;;;;10.13;1.50;;;;;;;;;;5055779;28;20025;-85
2023/11/06 03:21:25;;;;;;;10.27;1.73;;;;;;;;;;5074375;28;20464;-85
2023/11/06 03:23:50;;;;;;;12.10;1.52;;;;;;;;;;5055841;28;20511;-86
2023/11/06 03:26:16;;;;;;;5.00;1.13;;;;;;;;;;5074045;28;20040;-86
2023/11/06 03:28:41;;;;;;;9.37;1.43;;;;;;;;;;5073917;28;20253;-86
2023/11/06 03:31:08;;;;;;;10.90;1.80;;;;;;;;;;5055409;28;20771;-86
2023/11/06 03:33:33;;;;;;;12.38;1.55;;;;;;;;;;5073734;28;20530;-86
2023/11/06 03:36:00;;;;;;;10.37;1.30;;;;;;;;;;5073884;28;20021;-85
2023/11/06 03:38:26;;;;;;;4.90;1.13;;;;;;;;;;5073585;28;20277;-86
2023/11/06 03:40:51;;;;;;;14.20;1.63;;;;;;;;;;5073889;28;20023;-86
2023/11/06 03:43:16;;;;;;;6.20;1.57;;;;;;;;;;5073773;28;20082;-85
2023/11/06 03:45:41;;;;;;;17.60;1.80;;;;;;;;;;5056449;28;20707;-86
2023/11/06 03:48:07;;;;;;;11.63;1.60;;;;;;;;;;5055259;28;20020;-86
2023/11/06 03:50:32;;;;;;;7.55;1.35;;;;;;;;;;5055428;28;20134;-85
2023/11/06 03:52:57;;;;;;;5.63;1.30;;;;;;;;;;5055230;28;20025;-85
2023/11/06 03:55:22;;;;;;;8.53;1.70;;;;;;;;;;5055460;28;20266;-86
2023/11/06 03:57:47;;;;;;;6.20;1.63;;;;;;;;;;5055706;28;20025;-86
2023/11/06 04:00:13;;;;;;;10.37;1.60;;;;;;;;;;5055464;28;20246;-87
2023/11/06 04:02:38;;;;;;;6.82;1.30;;;;;;;;;;5073376;28;20039;-86
2023/11/06 04:05:04;;;;;;;6.00;1.33;;;;;;;;;;5073471;28;20514;-86
2023/11/06 04:07:29;;;;;;;9.55;1.77;;;;;;;;;;5055114;28;20618;-86
2023/11/06 04:09:56;;;;;;;12.33;2.33;;;;;;;;;;5073572;28;20029;-87
2023/11/06 04:12:22;;;;;;;11.00;1.77;;;;;;;;;;5073273;28;20252;-86
2023/11/06 04:14:47;;;;;;;8.70;1.55;;;;;;;;;;5073613;28;20025;-85
2023/11/06 04:17:13;;;;;;;9.05;1.50;;;;;;;;;;5073379;28;20499;-87
2023/11/06 04:19:38;;;;;;;6.60;1.53;;;;;;;;;;5055004;28;20020;-86
2023/11/06 04:22:03;;;;;;;10.97;1.67;;;;;;;;;;5055473;28;20016;-86
2023/11/06 04:24:28;;;;;;;7.53;1.50;;;;;;;;;;5055400;28;20086;-86
2023/11/06 04:26:54;;;;;;;5.57;1.10;;;;;;;;;;5073066;28;20023;-87
2023/11/06 04:29:19;;;;;;;4.03;1.07;;;;;;;;;;5072046;28;20460;-86
2023/11/06 04:31:44;;;;;;;3.90;0.97;;;;;;;;;;5055082;28;20267;-86
2023/11/06 04:34:10;;;;;;;8.47;1.47;;;;;;;;;;5063415;28;20461;-86
2023/11/06 04:36:35;;;;;;;5.33;1.20;;;;;;;;;;5054707;28;20016;-86
2023/11/06 04:39:00;;;;;;;4.90;0.90;;;;;;;;;;5054559;28;20043;-86
2023/11/06 04:41:25;;;;;;;4.87;1.13;;;;;;;;;;5054816;28;20306;-86
2023/11/06 04:43:50;;;;;;;6.30;1.57;;;;;;;;;;5054875;28;20054;-85
2023/11/06 04:46:16;;;;;;;9.23;1.40;;;;;;;;;;5054631;28;20260;-86
2023/11/06 04:48:41;;;;;;;13.20;1.47;;;;;;;;;;5055304;28;20283;-87
2023/11/06 04:51:07;;;;;;;9.45;1.33;;;;;;;;;;5072753;28;20704;-85
2023/11/06 04:53:33;;;;;;;3.75;1.38;;;;;;;;;;5054544;28;20111;-87
2023/11/06 04:55:58;;;;;;;6.20;0.95;;;;;;;;;;5054704;28;20500;-87
2023/11/06 04:58:25;;;;;;;8.17;1.20;;;;;;;;;;5053900;28;20020;-89
2023/11/06 05:00:51;;;;;;;12.80;1.40;;;;;;;;;;5058746;28;20555;-86
2023/11/06 05:03:16;;;;;;;10.17;1.10;;;;;;;;;;5076218;28;20056;-87
2023/11/06 05:05:41;;;;;;;6.57;1.13;;;;;;;;;;5076627;28;20099;-86
2023/11/06 05:08:06;;;;;;;7.87;1.53;;;;;;;;;;5058145;28;20025;-86
2023/11/06 05:10:31;;;;;;;6.07;0.90;;;;;;;;;;5076690;28;20109;-86
2023/11/06 05:12:57;;;;;;;6.17;1.67;;;;;;;;;;5076644;28;20324;-86
2023/11/06 05:15:24;;;;;;;6.97;1.15;;;;;;;;;;5058566;28;20249;-86
2023/11/06 05:17:49;;;;;;;4.72;0.80;;;;;;;;;;5058527;28;20027;-86
2023/11/06 05:20:16;;;;;;;6.07;1.30;;;;;;;;;;5076417;28;20013;-87
2023/11/06 05:22:42;;;;;;;5.50;1.10;;;;;;;;;;5058545;28;20541;-87
2023/11/06 05:25:08;;;;;;;14.32;1.60;;;;;;;;;;5076277;28;20068;-87
2023/11/06 05:27:33;;;;;;;3.78;0.82;;;;;;;;;;5076328;28;20021;-86
2023/11/06 05:29:58;;;;;;;6.38;1.17;;;;;;;;;;5076307;28;20032;-86
2023/11/06 05:32:23;;;;;;;4.47;1.03;;;;;;;;;;5076328;28;20021;-87
2023/11/06 05:34:49;;;;;;;5.23;0.90;;;;;;;;;;5058186;28;20254;-86
2023/11/06 05:37:14;;;;;;;6.75;1.23;;;;;;;;;;5076123;28;20021;-86
2023/11/06 05:39:39;;;;;;;3.60;0.80;;;;;;;;;;5076140;28;20013;-86
2023/11/06 05:42:07;;;;;;;9.23;1.25;;;;;;;;;;5076046;28;20245;-86
2023/11/06 05:44:33;;;;;;;7.18;1.27;;;;;;;;;;5058145;28;20024;-86
2023/11/06 05:46:58;;;;;;;5.35;0.95;;;;;;;;;;5076025;28;20017;-86
2023/11/06 05:49:23;;;;;;;6.88;1.08;;;;;;;;;;5076061;28;20028;-86
2023/11/06 05:51:49;;;;;;;7.97;1.20;;;;;;;;;;5075878;28;20095;-86
2023/11/06 05:54:15;;;;;;;5.20;1.13;;;;;;;;;;5057840;28;20013;-87
2023/11/06 05:56:40;;;;;;;7.13;1.13;;;;;;;;;;5075831;28;20016;-86
2023/11/06 05:59:05;;;;;;;7.47;1.13;;;;;;;;;;5057778;28;20511;-86
2023/11/06 06:01:31;;;;;;;5.53;0.87;;;;;;;;;;5057846;28;20291;-86
2023/11/06 06:03:57;;;;;;;6.28;1.45;;;;;;;;;;5057792;28;20280;-86
2023/11/06 06:06:23;;;;;;;6.20;1.13;;;;;;;;;;5075652;28;20573;-86
2023/11/06 06:08:48;;;;;;;9.60;1.20;;;;;;;;;;5057688;28;20100;-86
2023/11/06 06:11:13;;;;;;;8.18;1.25;;;;;;;;;;5074780;28;20468;-86
2023/11/06 06:13:39;;;;;;;8.13;1.02;;;;;;;;;;5057548;28;20032;-86
2023/11/06 06:16:04;;;;;;;4.00;1.02;;;;;;;;;;5075475;28;20017;-86
2023/11/06 06:18:30;;;;;;;3.08;0.73;;;;;;;;;;5057404;28;20021;-87
2023/11/06 06:20:55;;;;;;;5.15;1.25;;;;;;;;;;5075350;28;20023;-86
2023/11/06 06:23:21;;;;;;;3.40;0.95;;;;;;;;;;5075155;28;20048;-85
2023/11/06 06:25:46;;;;;;;6.93;1.00;;;;;;;;;;5057388;28;20021;-86
2023/11/06 06:28:11;;;;;;;3.30;0.70;;;;;;;;;;5075241;28;20330;-86
2023/11/06 06:30:36;;;;;;;11.43;1.15;;;;;;;;;;5075154;28;20249;-86
2023/11/06 06:33:02;;;;;;;10.60;0.90;;;;;;;;;;5075205;28;20024;-86
2023/11/06 06:35:27;;;;;;;9.30;1.00;;;;;;;;;;5074994;28;20028;-86
2023/11/06 06:37:53;;;;;;;11.30;1.50;;;;;;;;;;5057096;28;20024;-86
2023/11/06 06:40:20;;;;;;;9.88;1.13;;;;;;;;;;5057157;28;20024;-87
2023/11/06 06:42:45;;;;;;;10.93;1.40;;;;;;;;;;5057058;28;20017;-86
2023/11/06 06:45:10;;;;;;;8.53;1.20;;;;;;;;;;5056990;28;20388;-86
2023/11/06 06:47:35;;;;;;;11.50;1.27;;;;;;;;;;5056913;28;20764;-86
2023/11/06 06:50:00;;;;;;;5.17;1.17;;;;;;;;;;5056852;28;20031;-86
2023/11/06 06:52:26;;;;;;;12.00;1.33;;;;;;;;;;5056881;28;20260;-87
2023/11/06 06:54:51;;;;;;;6.30;0.83;;;;;;;;;;5074721;28;20016;-87
2023/11/06 06:57:16;;;;;;;8.53;1.47;;;;;;;;;;5074602;28;20752;-86
2023/11/06 06:59:41;;;;;;;6.40;1.07;;;;;;;;;;5040115;28;20257;-86
2023/11/06 07:02:07;;;;;;;5.93;1.02;;;;;;;;;;5056627;28;20329;-86
2023/11/06 07:04:33;;;;;;;6.83;1.00;;;;;;;;;;5056592;28;20036;-86
2023/11/06 07:06:58;;;;;;;2.08;0.68;;;;;;;;;;5056550;28;20234;-86
2023/11/06 07:09:25;;;;;;;4.53;0.80;;;;;;;;;;5074431;28;20028;-86
2023/11/06 07:11:50;;;;;;;10.85;1.33;;;;;;;;;;5074400;28;20008;-85
2023/11/06 07:14:16;;;;;;;3.20;0.82;;;;;;;;;;5074362;28;20465;-86
2023/11/06 07:16:41;;;;;;;7.10;1.20;;;;;;;;;;5074234;28;20027;-87
2023/11/06 07:19:06;;;;;;;4.40;0.77;;;;;;;;;;5074163;28;20028;-87
2023/11/06 07:21:32;;;;;;;7.50;1.20;;;;;;;;;;5074093;28;20248;-86
2023/11/06 07:23:57;;;;;;;6.65;1.20;;;;;;;;;;5074035;28;20082;-86
2023/11/06 07:26:22;;;;;;;10.83;1.30;;;;;;;;;;5056217;28;20021;-85
2023/11/06 07:28:48;;;;;;;5.25;1.05;;;;;;;;;;5073990;28;20245;-85
2023/11/06 07:31:13;;;;;;;16.88;1.70;;;;;;;;;;5074133;28;20095;-85
2023/11/06 07:33:38;;;;;;;10.40;1.23;;;;;;;;;;5074171;28;20487;-86
2023/11/06 07:36:04;;;;;;;3.83;1.02;;;;;;;;;;5073851;28;20713;-86
2023/11/06 07:38:29;;;;;;;6.70;1.42;;;;;;;;;;5073826;28;20098;-85
2023/11/06 07:40:54;;;;;;;7.55;1.00;;;;;;;;;;5055880;28;20104;-85
2023/11/06 07:43:20;;;;;;;4.47;1.25;;;;;;;;;;5055768;28;20019;-85
2023/11/06 07:45:45;;;;;;;5.80;1.17;;;;;;;;;;5055806;28;20044;-85
2023/11/06 07:48:10;;;;;;;5.00;1.00;;;;;;;;;;5055809;28;20258;-86
2023/11/06 07:50:36;;;;;;;3.40;0.85;;;;;;;;;;5073600;28;20261;-86
2023/11/06 07:53:01;;;;;;;10.27;1.70;;;;;;;;;;5055731;28;20027;-85
2023/11/06 07:55:26;;;;;;;8.95;1.70;;;;;;;;;;5055677;28;20020;-86
2023/11/06 07:57:52;;;;;;;4.53;1.40;;;;;;;;;;5073579;28;20465;-88
2023/11/06 08:00:17;;;;;;;6.80;1.60;;;;;;;;;;5073536;28;20119;-86
2023/11/06 08:02:43;;;;;;;7.05;1.35;;;;;;;;;;5073522;28;20456;-89
2023/11/06 08:05:08;;;;;;;4.75;0.98;;;;;;;;;;5073471;28;20016;-88
2023/11/06 08:07:34;;;;;;;7.45;1.42;;;;;;;;;;5055439;28;20028;-88
2023/11/06 08:10:00;;;;;;;4.88;0.98;;;;;;;;;;5073750;28;20021;-88
2023/11/06 08:12:25;;;;;;;7.18;1.50;;;;;;;;;;5073354;28;20025;-88
2023/11/06 08:14:50;;;;;;;9.13;1.03;;;;;;;;;;5055370;28;20029;-88
2023/11/06 08:17:16;;;;;;;5.37;0.77;;;;;;;;;;5055319;28;20016;-88
2023/11/06 08:19:41;;;;;;;7.65;1.20;;;;;;;;;;5055426;28;20012;-89
2023/11/06 08:22:08;;;;;;;4.88;1.15;;;;;;;;;;5055377;28;20020;-88
2023/11/06 08:24:33;;;;;;;6.55;1.50;;;;;;;;;;5073097;28;20055;-89
2023/11/06 08:26:59;;;;;;;2.50;1.02;;;;;;;;;;5073273;28;20028;-89
2023/11/06 08:29:24;;;;;;;4.63;1.00;;;;;;;;;;5073291;28;20040;-88
2023/11/06 08:31:49;;;;;;;7.67;1.30;;;;;;;;;;5055258;28;20238;-88
2023/11/06 08:34:16;;;;;;;6.63;1.23;;;;;;;;;;5058790;28;20098;-88
2023/11/06 08:36:43;;;;;;;5.78;1.20;;;;;;;;;;5061843;28;20464;-89
2023/11/06 08:39:08;;;;;;;11.95;1.58;;;;;;;;;;5079791;28;20021;-89
2023/11/06 08:41:33;;;;;;;2.83;0.57;;;;;;;;;;5079700;28;20047;-87
2023/11/06 08:44:00;;;;;;;6.80;1.00;;;;;;;;;;5061845;28;20039;-88
2023/11/06 08:46:26;;;;;;;3.85;0.90;;;;;;;;;;5079749;28;20717;-88
2023/11/06 08:48:51;;;;;;;6.97;1.10;;;;;;;;;;5061697;28;20032;-88
2023/11/06 08:51:16;;;;;;;4.83;1.03;;;;;;;;;;5079698;28;20716;-89
2023/11/06 08:53:41;;;;;;;3.70;1.00;;;;;;;;;;5061654;28;20065;-89
2023/11/06 08:56:07;;;;;;;3.43;1.00;;;;;;;;;;5061674;28;20054;-89
2023/11/06 08:58:32;;;;;;;5.25;0.95;;;;;;;;;;5079469;28;20021;-89
2023/11/06 09:01:00;;;;;;;5.17;0.80;;;;;;;;;;5079656;28;20052;-88
2023/11/06 09:03:25;;;;;;;4.18;1.00;;;;;;;;;;5079599;28;20016;-89
2023/11/06 09:05:51;;;;;;;2.40;0.63;;;;;;;;;;5079630;28;20027;-88
2023/11/06 09:08:17;;;;;;;7.47;1.00;;;;;;;;;;5079549;28;20403;-88
2023/11/06 09:10:43;;;;;;;2.67;0.80;;;;;;;;;;5079617;28;20020;-89
2023/11/06 09:13:09;;;;;;;2.33;0.68;;;;;;;;;;5061520;28;20365;-89
2023/11/06 09:15:38;;;;;;;3.58;0.80;;;;;;;;;;5061474;28;20028;-89
2023/11/06 09:18:03;;;;;;;3.28;0.77;;;;;;;;;;5061365;28;20032;-89
2023/11/06 09:20:28;;;;;;;4.32;0.77;;;;;;;;;;5079434;28;20016;-88
2023/11/06 09:22:54;;;;;;;3.23;0.97;;;;;;;;;;5079410;28;20020;-88
2023/11/06 09:25:19;;;;;;;7.05;0.90;;;;;;;;;;5061279;28;20048;-88
2023/11/06 09:27:45;;;;;;;3.10;0.67;;;;;;;;;;5061361;28;20043;-89
2023/11/06 09:30:11;;;;;;;2.47;1.00;;;;;;;;;;5061424;28;20336;-88
2023/11/06 09:32:37;;;;;;;3.03;0.70;;;;;;;;;;5079323;28;20250;-89
2023/11/06 09:35:03;;;;;;;3.33;0.70;;;;;;;;;;5061296;28;20051;-88
2023/11/06 09:37:29;;;;;;;5.18;0.70;;;;;;;;;;5079147;28;20426;-89
2023/11/06 09:39:54;;;;;;;2.72;0.80;;;;;;;;;;5079275;28;20016;-88
2023/11/06 09:42:19;;;;;;;7.17;0.97;;;;;;;;;;5061247;28;20046;-88
2023/11/06 09:44:46;;;;;;;2.80;0.67;;;;;;;;;;5078619;28;20332;-88
2023/11/06 09:47:11;;;;;;;3.63;0.88;;;;;;;;;;5057215;28;20745;-88
2023/11/06 09:49:42;;;;;;;3.58;0.80;;;;;;;;;;5075947;28;20013;-88
2023/11/06 09:52:07;;;;;;;3.03;0.50;;;;;;;;;;5057978;28;20362;-88
2023/11/06 09:54:32;;;;;;;7.15;0.98;;;;;;;;;;5057918;28;20162;-88
2023/11/06 09:56:58;;;;;;;5.65;0.90;;;;;;;;;;5075740;28;20012;-88
2023/11/06 09:59:23;;;;;;;5.00;1.10;;;;;;;;;;5057852;28;20116;-88
2023/11/06 10:01:49;;;;;;;4.57;0.87;;;;;;;;;;5075740;28;20021;-88
2023/11/06 10:04:15;;;;;;;5.82;0.82;;;;;;;;;;5057729;28;20741;-89
2023/11/06 10:06:42;;;;;;;1.98;0.70;;;;;;;;;;5057677;28;20023;-88
2023/11/06 10:09:23;;;;;;;4.13;0.80;;;;;;;;;;5057636;28;20031;-88
2023/11/06 10:11:49;;;;;;;2.07;0.87;;;;;;;;;;5075609;28;20025;-88
2023/11/06 10:14:14;;;;;;;2.72;0.63;;;;;;;;;;5057538;28;20628;-88
2023/11/06 10:16:40;;;;;;;9.00;0.93;;;;;;;;;;5075475;28;20024;-88
2023/11/06 10:19:10;;;;;;;5.33;0.90;;;;;;;;;;5075353;28;20107;-88
2023/11/06 10:21:35;;;;;;;4.88;1.08;;;;;;;;;;5057488;28;20100;-88
2023/11/06 10:24:01;;;;;;;4.47;0.90;;;;;;;;;;5075202;28;20563;-89
2023/11/06 10:26:28;;;;;;;1.98;0.70;;;;;;;;;;5075269;28;20024;-88
2023/11/06 10:29:06;;;;;;;3.15;0.57;;;;;;;;;;5057295;28;20027;-88
2023/11/06 10:31:45;;;;;;;2.50;0.73;;;;;;;;;;5075220;28;20059;-88
2023/11/06 10:34:22;;;;;;;3.25;0.75;;;;;;;;;;5057172;28;20025;-88
2023/11/06 10:36:58;;;;;;;5.40;1.00;;;;;;;;;;5075102;28;20048;-87
2023/11/06 10:39:24;;;;;;;7.13;1.25;;;;;;;;;;5075094;28;20103;-88
2023/11/06 10:41:58;;;;;;;6.82;0.82;;;;;;;;;;5057055;28;20021;-88
2023/11/06 10:44:23;;;;;;;4.38;0.57;;;;;;;;;;5057022;28;20024;-88
2023/11/06 10:46:49;;;;;;;3.83;0.50;;;;;;;;;;5074972;28;20357;-87
2023/11/06 10:49:17;;;;;;;2.55;0.82;;;;;;;;;;5056957;28;20028;-87
2023/11/06 10:51:43;;;;;;;3.85;0.70;;;;;;;;;;5056892;28;20017;-88
2023/11/06 10:54:09;;;;;;;5.28;1.02;;;;;;;;;;5074712;28;20013;-88
2023/11/06 10:56:35;;;;;;;4.65;0.70;;;;;;;;;;5074410;28;20380;-88
2023/11/06 10:59:01;;;;;;;2.28;0.68;;;;;;;;;;5056581;28;20384;-88
2023/11/06 11:01:28;;;;;;;9.32;1.02;;;;;;;;;;5074656;28;20035;-88
2023/11/06 11:03:53;;;;;;;3.65;0.90;;;;;;;;;;5056663;28;20465;-88
2023/11/06 11:06:19;;;;;;;4.07;0.90;;;;;;;;;;5074483;28;20020;-87
2023/11/06 11:08:46;;;;;;;6.07;0.98;;;;;;;;;;5056543;28;20514;-88
2023/11/06 11:11:11;;;;;;;2.90;0.93;;;;;;;;;;5074377;28;20028;-86
2023/11/06 11:13:37;;;;;;;3.57;1.03;;;;;;;;;;5074313;28;20091;-86
2023/11/06 11:16:21;;;;;;;2.88;0.88;;;;;;;;;;5056375;28;20276;-85
2023/11/06 11:18:46;;;;;;;3.45;0.68;;;;;;;;;;5056233;28;20021;-85
2023/11/06 11:21:11;;;;;;;3.75;0.85;;;;;;;;;;5074222;28;20020;-85
2023/11/06 11:23:41;;;;;;;5.87;0.90;;;;;;;;;;5073995;28;20049;-85
2023/11/06 11:26:09;;;;;;;5.35;0.80;;;;;;;;;;5074077;28;20245;-85
2023/11/06 11:28:56;;;;;;;2.38;0.70;;;;;;;;;;5074045;28;20384;-85
2023/11/06 11:31:43;;;;;;;3.20;0.63;;;;;;;;;;5056149;28;20103;-85
2023/11/06 11:34:24;;;;;;;3.38;0.80;;;;;;;;;;5055973;28;20028;-86
2023/11/06 11:36:50;;;;;;;3.80;1.00;;;;;;;;;;5073957;28;20024;-84
2023/11/06 11:39:17;;;;;;;4.40;1.00;;;;;;;;;;5055869;28;20020;-85
2023/11/06 11:42:01;;;;;;;0.93;0.47;;;;;;;;;;5055924;28;20024;-85
2023/11/06 11:44:26;;;;;;;3.15;0.63;;;;;;;;;;5055876;28;20103;-85
2023/11/06 11:46:53;;;;;;;3.13;0.73;;;;;;;;;;5073999;28;20044;-86
2023/11/06 11:49:39;;;;;;;1.52;0.63;;;;;;;;;;5073795;28;20336;-85
2023/11/06 11:52:05;;;;;;;1.50;0.50;;;;;;;;;;5055423;28;20040;-85
2023/11/06 11:54:31;;;;;;;1.38;0.52;;;;;;;;;;5073648;28;20073;-86
2023/11/06 11:56:57;;;;;;;1.42;0.45;;;;;;;;;;5073530;28;20031;-86
2023/11/06 11:59:23;;;;;;;2.38;0.70;;;;;;;;;;5055580;28;20468;-85
2023/11/06 12:01:49;;;;;;;3.15;0.43;;;;;;;;;;5055611;28;20016;-85
2023/11/06 12:04:15;;;;;;;1.42;0.50;;;;;;;;;;5055573;28;20063;-86
2023/11/06 12:06:40;;;;;;;1.10;0.50;;;;;;;;;;5073448;28;20016;-85
2023/11/06 12:09:05;;;;;;;1.33;0.43;;;;;;;;;;5054880;28;20527;-85
2023/11/06 12:11:30;;;;;;;0.70;0.37;;;;;;;;;;5055439;28;20025;-85
2023/11/06 12:13:56;;;;;;;2.67;0.40;;;;;;;;;;5055404;28;20032;-85
2023/11/06 12:16:21;;;;;;;0.73;0.40;;;;;;;;;;5055530;28;20289;-85
2023/11/06 12:18:47;;;;;;;0.50;0.30;;;;;;;;;;5073257;28;20330;-85
2023/11/06 12:21:13;;;;;;;1.52;0.32;;;;;;;;;;5055392;28;20070;-86
2023/11/06 12:23:39;;;;;;;0.88;0.30;;;;;;;;;;5055096;28;20036;-85
2023/11/06 12:26:10;;;;;;;1.07;0.30;;;;;;;;;;5055312;28;20028;-85
2023/11/06 12:28:43;;;;;;;0.57;0.32;;;;;;;;;;5055238;28;20476;-85
2023/11/06 12:31:08;;;;;;;1.40;0.50;;;;;;;;;;5073180;28;20048;-86
2023/11/06 12:33:33;;;;;;;1.97;0.50;;;;;;;;;;5073237;28;20036;-85
2023/11/06 12:35:58;;;;;;;0.87;0.50;;;;;;;;;;5055162;28;20021;-85
2023/11/06 12:38:35;;;;;;;4.60;0.57;;;;;;;;;;5055054;28;20074;-85
2023/11/06 12:41:03;;;;;;;0.95;0.55;;;;;;;;;;5073046;28;20016;-86
2023/11/06 12:43:29;;;;;;;0.80;0.40;;;;;;;;;;5055111;28;20380;-86
2023/11/06 12:45:55;;;;;;;0.40;0.40;;;;;;;;;;5073119;28;20468;-85
2023/11/06 12:48:21;;;;;;;0.30;0.30;;;;;;;;;;5055192;28;20028;-85
2023/11/06 12:50:56;;;;;;;0.68;0.50;;;;;;;;;;5055096;28;20020;-85
2023/11/06 12:53:21;;;;;;;1.15;0.55;;;;;;;;;;5073005;28;20013;-85
2023/11/06 12:55:47;;;;;;;5.00;0.83;;;;;;;;;;5054913;28;20039;-86
2023/11/06 12:58:12;;;;;;;0.70;0.43;;;;;;;;;;5054919;28;20306;-86
2023/11/06 13:00:38;;;;;;;2.42;0.40;;;;;;;;;;5055014;28;20021;-85
2023/11/06 13:03:04;;;;;;;5.95;0.57;;;;;;;;;;5054939;28;20049;-86
2023/11/06 13:05:29;;;;;;;1.83;0.80;;;;;;;;;;5072880;28;20027;-86
2023/11/06 13:07:55;;;;;;;2.90;0.80;;;;;;;;;;5072871;28;20020;-86
2023/11/06 13:10:21;;;;;;;1.27;0.47;;;;;;;;;;5054827;28;20020;-85
2023/11/06 13:12:47;;;;;;;1.95;0.40;;;;;;;;;;5072844;28;20024;-85
2023/11/06 13:15:14;;;;;;;2.35;0.50;;;;;;;;;;5054865;28;20027;-86
2023/11/06 13:17:39;;;;;;;2.22;0.40;;;;;;;;;;5054784;28;20074;-85
2023/11/06 13:22:49;;;;;;;1.40;0.50;;;;;;;;;;5076784;28;20031;-84
2023/11/06 13:25:14;;;;;;;3.00;0.33;;;;;;;;;;5076306;28;20048;-86
2023/11/06 13:27:39;;;;;;;0.77;0.40;;;;;;;;;;5076422;28;20257;-85
2023/11/06 13:30:05;;;;;;;0.23;0.23;;;;;;;;;;5076408;28;20025;-86
2023/11/06 13:32:30;;;;;;;3.00;0.52;;;;;;;;;;5076234;28;20238;-85
2023/11/06 13:34:55;;;;;;;1.97;0.47;;;;;;;;;;5058280;28;20159;-85
2023/11/06 13:37:21;;;;;;;0.83;0.30;;;;;;;;;;5076191;28;20080;-85
2023/11/06 13:39:49;;;;;;;0.80;0.40;;;;;;;;;;5058238;28;20281;-85
2023/11/06 13:42:14;;;;;;;1.25;0.38;;;;;;;;;;5058234;28;20023;-85
2023/11/06 13:44:39;;;;;;;1.03;0.40;;;;;;;;;;5058176;28;20021;-86
2023/11/06 13:47:05;;;;;;;1.03;0.40;;;;;;;;;;5076041;28;20468;-85
2023/11/06 13:49:31;;;;;;;0.40;0.40;;;;;;;;;;5076086;28;20618;-85
2023/11/06 13:51:56;;;;;;;1.25;0.50;;;;;;;;;;5076005;28;20009;-86
2023/11/06 13:54:27;;;;;;;1.37;0.50;;;;;;;;;;5058105;28;20488;-85
2023/11/06 13:56:52;;;;;;;2.40;0.50;;;;;;;;;;5075893;28;20252;-85
2023/11/06 13:59:28;;;;;;;2.65;0.50;;;;;;;;;;5075803;28;20403;-86
2023/11/06 14:01:54;;;;;;;2.00;0.35;;;;;;;;;;5075854;28;20417;-85
2023/11/06 14:04:19;;;;;;;0.93;0.50;;;;;;;;;;5057775;28;20017;-85
2023/11/06 14:06:47;;;;;;;0.40;0.40;;;;;;;;;;5075756;28;20027;-86
2023/11/06 14:09:57;;;;;;;1.33;0.50;;;;;;;;;;5075704;28;20024;-86
2023/11/06 14:11:57;;;;;;;0.55;0.40;;;;;;;;;;5071668;28;20113;-85
2023/11/06 14:14:23;;;;;;;3.00;0.60;;;;;;;;;;5075648;28;20481;-85
2023/11/06 14:16:55;;;;;;;2.07;0.60;;;;;;;;;;5075431;28;20027;-85
2023/11/06 14:19:20;;;;;;;;;;;;;;;;;;5075886;28;20411;-85
2023/11/06 14:21:45;;;;;;;1.38;0.45;;;;;;;;;;5057481;28;20264;-85
2023/11/06 14:24:11;;;;;;;0.40;0.40;;;;;;;;;;5057269;28;20074;-85
2023/11/06 14:26:36;;;;;;;3.53;0.57;;;;;;;;;;5057412;28;20020;-84
2023/11/06 14:29:01;;;;;;;1.77;0.40;;;;;;;;;;5075283;28;20017;-85
2023/11/06 14:31:27;;;;;;;2.10;0.50;;;;;;;;;;5074544;28;20495;-84
2023/11/06 14:33:52;;;;;;;0.60;0.40;;;;;;;;;;5057125;28;20254;-84
2023/11/06 14:36:17;;;;;;;1.17;0.75;;;;;;;;;;5057166;28;20021;-85
2023/11/06 14:38:43;;;;;;;1.92;0.40;;;;;;;;;;5057144;28;20079;-84